Time;durP1;ratioP1;P1;durP2;ratioP2;P2;SDS_P1;SDS_P2;PMS_P1;PMS_P2;Temp;Humidity;BMP_temperature;BMP_pressure;BME280_temperature;BME280_humidity;BME280_pressure;Samples;Min_cycle;Max_cycle;Signal;HPM_P1;HPM_P2
2023/03/27 00:05:21;;;;;;;8.70;2.97;;;;;;;22.53;38.83;101412.78;21073936;28;20494;-68
2023/03/27 00:15:23;;;;;;;46.13;19.35;;;;;;;22.47;39.00;101425.06;21072336;28;20382;-67
2023/03/27 00:25:29;;;;;;;68.60;31.67;;;;;;;22.37;40.68;101419.50;21076470;28;20044;-68
2023/03/27 00:35:31;;;;;;;82.78;43.33;;;;;;;22.47;42.90;101431.47;21064175;28;20044;-68
2023/03/27 00:45:32;;;;;;;90.05;44.63;;;;;;;22.43;42.58;101429.53;21073888;28;20047;-67
2023/03/27 00:55:37;;;;;;;81.82;42.97;;;;;;;22.40;42.04;101436.47;21067667;28;20047;-68
2023/03/27 01:05:40;;;;;;;72.47;42.25;;;;;;;22.55;41.68;101458.81;21070000;28;20097;-68
2023/03/27 01:15:41;;;;;;;77.13;41.15;;;;;;;22.53;41.57;101460.19;21066980;28;20048;-71
2023/03/27 01:26:10;;;;;;;66.97;37.00;;;;;;;22.43;41.77;101469.38;21048016;28;20044;-67
2023/03/27 01:36:19;;;;;;;67.27;38.63;;;;;;;22.45;41.15;101483.03;21040809;28;20067;-72
2023/03/27 01:46:46;;;;;;;63.75;34.00;;;;;;;22.47;41.20;101505.94;21057485;28;20040;-74
2023/03/27 01:57:07;;;;;;;65.88;33.50;;;;;;;22.43;41.04;101500.06;21051950;28;20491;-73
2023/03/27 02:07:16;;;;;;;56.53;30.55;;;;;;;22.45;41.01;101519.31;21060564;28;20124;-74
2023/03/27 02:17:20;;;;;;;49.30;26.83;;;;;;;22.35;40.96;101513.72;21047769;28;20089;-76
2023/03/27 02:27:31;;;;;;;47.55;26.05;;;;;;;22.40;41.24;101549.97;21055180;28;20044;-77
2023/03/27 02:38:08;;;;;;;45.13;24.25;;;;;;;22.38;41.19;101568.94;21045525;28;20097;-72
2023/03/27 02:48:28;;;;;;;35.38;22.13;;;;;;;22.28;41.14;101562.22;21047960;28;20109;-72
2023/03/27 02:58:56;;;;;;;37.08;19.25;;;;;;;22.19;41.14;101563.88;21044419;28;20044;-72
2023/03/27 03:09:04;;;;;;;34.97;19.00;;;;;;;22.31;41.37;101574.75;21049412;28;20044;-72
2023/03/27 03:19:05;;;;;;;31.10;16.57;;;;;;;22.04;40.96;101522.84;21048364;28;20450;-73
2023/03/27 03:29:08;;;;;;;30.77;14.90;;;;;;;22.21;41.13;101561.66;21078306;28;20032;-72
2023/03/27 03:39:11;;;;;;;29.17;15.38;;;;;;;21.41;41.17;101423.75;21076929;28;20048;-72
2023/03/27 03:49:12;;;;;;;29.67;14.65;;;;;;;22.24;40.62;101572.25;21085140;28;20544;-72
2023/03/27 03:59:15;;;;;;;24.77;13.10;;;;;;;22.21;40.73;101581.16;21082600;28;20052;-72
2023/03/27 04:09:16;;;;;;;21.27;12.00;;;;;;;22.16;40.44;101585.88;21078492;28;20037;-72
2023/03/27 04:19:21;;;;;;;21.92;12.00;;;;;;;22.08;40.38;101590.00;21066197;28;20056;-72
2023/03/27 04:29:23;;;;;;;19.90;10.65;;;;;;;22.10;40.54;101595.31;21077805;28;20388;-72
2023/03/27 04:39:25;;;;;;;17.88;9.25;;;;;;;22.16;40.04;101625.75;21078531;28;20044;-71
2023/03/27 04:49:29;;;;;;;16.77;8.80;;;;;;;22.16;40.15;101620.16;21077329;28;20075;-74
2023/03/27 04:59:31;;;;;;;13.68;8.05;;;;;;;21.56;39.81;101522.09;21076235;28;20040;-73
2023/03/27 05:09:32;;;;;;;14.40;8.23;;;;;;;22.14;39.78;101604.84;21076667;28;20040;-73
2023/03/27 05:19:34;;;;;;;11.15;7.10;;;;;;;22.00;39.63;101582.19;21075279;28;20056;-73
2023/03/27 05:29:44;;;;;;;13.18;6.75;;;;;;;22.03;39.67;101584.41;21075304;28;20040;-74
2023/03/27 05:39:45;;;;;;;11.85;6.88;;;;;;;22.10;39.50;101609.25;21061158;28;20032;-73
2023/03/27 05:49:46;;;;;;;10.35;6.60;;;;;;;21.97;39.16;101589.13;21069278;28;20536;-72
2023/03/27 05:59:48;;;;;;;11.18;5.90;;;;;;;22.06;38.99;101609.78;21074557;28;20040;-72
2023/03/27 06:09:49;;;;;;;7.78;5.40;;;;;;;22.07;38.97;101655.22;21051780;28;20040;-72
2023/03/27 06:19:51;;;;;;;9.95;5.40;;;;;;;21.89;38.87;101627.81;21072160;28;20121;-72
2023/03/27 06:29:52;;;;;;;6.97;4.75;;;;;;;22.03;39.13;101637.38;21071801;28;20097;-73
2023/03/27 06:39:53;;;;;;;8.85;4.80;;;;;;;21.91;38.62;101569.91;21069273;28;20051;-73
2023/03/27 06:49:55;;;;;;;6.35;4.30;;;;;;;21.99;38.44;101578.56;21066913;28;20433;-73
2023/03/27 07:00:11;;;;;;;8.32;4.03;;;;;;;22.02;38.68;101613.41;21067191;28;20031;-73
2023/03/27 07:10:14;;;;;;;5.90;4.13;;;;;;;21.98;38.62;101629.81;21076557;28;20561;-74
2023/03/27 07:20:22;;;;;;;7.43;4.05;;;;;;;21.98;38.51;101645.69;21080560;28;20391;-73
2023/03/27 07:30:24;;;;;;;6.55;4.13;;;;;;;21.82;38.05;101601.06;21082510;28;20446;-73
2023/03/27 07:40:25;;;;;;;6.05;3.97;;;;;;;21.97;38.22;101627.31;21075452;28;20043;-73
2023/03/27 07:50:26;;;;;;;5.53;3.35;;;;;;;21.95;38.28;101612.81;21079342;28;20043;-73
2023/03/27 08:00:29;;;;;;;4.63;3.40;;;;;;;21.92;37.82;101621.72;21076541;28;20040;-72
2023/03/27 08:10:34;;;;;;;5.40;3.60;;;;;;;21.91;37.79;101601.38;21075742;28;20048;-73
2023/03/27 08:20:35;;;;;;;3.65;2.90;;;;;;;21.89;37.97;101611.09;21075526;28;20561;-72
2023/03/27 08:30:37;;;;;;;3.25;2.70;;;;;;;21.85;37.66;101596.03;21069021;28;20040;-72
2023/03/27 08:40:40;;;;;;;3.35;2.80;;;;;;;21.88;37.89;101603.88;21079683;28;20429;-72
2023/03/27 08:50:55;;;;;;;3.28;2.75;;;;;;;21.77;37.51;101595.47;21072819;28;20094;-72
2023/03/27 09:01:05;;;;;;;3.83;3.13;;;;;;;21.85;37.55;101623.91;21069286;28;20044;-72
2023/03/27 09:11:29;;;;;;;4.45;3.05;;;;;;;21.53;37.41;101563.56;21076521;28;20391;-72
2023/03/27 09:21:41;;;;;;;3.75;2.70;;;;;;;21.79;37.76;101579.28;21076110;28;20088;-71
2023/03/27 09:31:49;;;;;;;3.35;2.50;;;;;;;21.59;37.64;101576.44;21077671;28;20052;-72
2023/03/27 09:41:54;;;;;;;4.32;3.20;;;;;;;20.22;37.36;101373.19;21072697;28;20036;-73
2023/03/27 09:51:58;;;;;;;4.63;3.22;;;;;;;21.38;37.10;101571.84;21065379;28;20057;-72
2023/03/27 10:02:20;;;;;;;4.47;3.33;;;;;;;21.74;37.27;101623.84;21069668;28;20036;-72
2023/03/27 10:12:21;;;;;;;3.08;2.60;;;;;;;21.86;37.07;101606.09;21067661;28;20552;-73
2023/03/27 10:22:43;;;;;;;4.35;3.28;;;;;;;21.87;37.19;101610.56;21066848;28;20403;-72
2023/03/27 10:32:46;;;;;;;4.05;3.20;;;;;;;21.95;36.67;101590.53;21066145;28;20024;-72
2023/03/27 10:42:48;;;;;;;3.33;2.58;;;;;;;21.98;36.85;101603.91;21067126;28;20066;-73
2023/03/27 10:53:16;;;;;;;3.60;2.63;;;;;;;21.96;37.24;101598.59;21063807;28;20044;-72
2023/03/27 11:03:43;;;;;;;4.40;3.00;;;;;;;21.75;36.90;101585.69;21063440;28;20036;-72
2023/03/27 11:13:46;;;;;;;3.03;2.72;;;;;;;21.83;36.71;101605.50;21058997;28;20040;-71
2023/03/27 11:24:02;;;;;;;4.45;3.10;;;;;;;22.09;36.91;101636.28;21048975;28;20028;-72
2023/03/27 11:34:18;;;;;;;4.38;3.00;;;;;;;22.10;37.33;101648.28;21060701;28;20036;-71
2023/03/27 11:44:23;;;;;;;25.33;4.13;;;;;;;22.09;39.02;101627.94;21066031;28;20043;-74
2023/03/27 11:54:38;;;;;;;11.00;3.13;;;;;;;21.86;38.84;101564.31;21070178;28;20047;-70
2023/03/27 12:04:47;;;;;;;3.28;2.50;;;;;;;22.25;39.11;101618.53;21062098;28;20090;-71
2023/03/27 12:14:57;;;;;;;8.75;2.55;;;;;;;22.30;38.83;101629.69;21082644;28;20048;-72
2023/03/27 12:25:17;;;;;;;10.30;3.08;;;;;;;22.36;39.19;101624.13;21062879;28;20568;-71
2023/03/27 12:35:22;;;;;;;14.77;3.35;;;;;;;22.42;41.57;101611.91;21061677;28;20040;-72
2023/03/27 12:45:26;;;;;;;17.75;3.95;;;;;;;22.37;41.00;101612.72;21059019;28;20093;-69
2023/03/27 12:55:34;;;;;;;13.68;2.97;;;;;;;21.91;40.63;101514.16;21079213;27;20047;-71
2023/03/27 13:05:54;;;;;;;13.70;3.35;;;;;;;22.40;40.57;101602.94;21063251;28;20462;-72
2023/03/27 13:16:05;;;;;;;5.72;2.50;;;;;;;22.61;39.65;101607.47;21074734;28;20055;-70
2023/03/27 13:26:40;;;;;;;17.80;3.00;;;;;;;22.65;39.83;101579.88;21068374;28;20040;-74
2023/03/27 13:36:47;;;;;;;9.43;3.25;;;;;;;22.15;40.35;101481.91;21040539;28;20044;-76
2023/03/27 13:47:30;;;;;;;13.33;3.70;;;;;;;22.73;39.81;101552.25;21049030;28;20191;-75
2023/03/27 13:58:08;;;;;;;11.18;2.60;;;;;;;22.77;40.41;101525.47;21041473;28;20052;-71
2023/03/27 14:08:15;;;;;;;11.88;3.25;;;;;;;22.84;40.45;101520.44;21039234;28;20052;-72
2023/03/27 14:18:34;;;;;;;5.75;2.70;;;;;;;22.92;40.29;101507.06;21051630;28;20117;-73
2023/03/27 14:28:50;;;;;;;6.75;2.60;;;;;;;22.68;40.14;101442.59;21057597;28;20097;-75
2023/03/27 14:38:51;;;;;;;8.25;2.42;;;;;;;22.95;40.34;101456.25;21043500;28;20061;-74
2023/03/27 14:48:58;;;;;;;14.32;3.13;;;;;;;22.81;40.54;101401.00;21062360;28;20044;-72
2023/03/27 14:59:03;;;;;;;14.50;3.50;;;;;;;22.86;40.85;101377.00;21048131;28;20168;-72
2023/03/27 15:09:13;;;;;;;13.55;2.72;;;;;;;23.03;40.54;101394.28;21052166;28;20557;-75
2023/03/27 15:19:23;;;;;;;24.40;3.35;;;;;;;23.07;39.98;101373.88;21066992;28;20483;-76
2023/03/27 15:29:37;;;;;;;7.93;2.90;;;;;;;23.08;39.85;101346.81;21070705;28;20039;-72
2023/03/27 15:39:57;;;;;;;72.65;7.72;;;;;;;23.09;40.25;101331.72;21055379;28;20449;-70
2023/03/27 15:50:25;;;;;;;28.75;4.38;;;;;;;23.14;39.71;101340.09;21074260;28;20059;-74
2023/03/27 16:00:26;;;;;;;32.50;4.25;;;;;;;23.17;40.18;101297.63;21060085;28;20035;-75
2023/03/27 16:10:31;;;;;;;51.78;7.47;;;;;;;22.73;39.92;101217.47;21065023;28;20044;-70
2023/03/27 16:20:38;;;;;;;19.63;4.25;;;;;;;23.19;39.85;101267.47;21064786;28;20051;-70
2023/03/27 16:30:40;;;;;;;35.90;4.20;;;;;;;23.18;39.99;101257.41;21071760;28;20044;-68
2023/03/27 16:40:43;;;;;;;27.92;5.63;;;;;;;23.24;40.03;101253.47;21063670;28;20048;-69
2023/03/27 16:50:45;;;;;;;17.92;3.75;;;;;;;23.26;40.16;101242.84;21064247;28;20395;-71
2023/03/27 17:00:46;;;;;;;15.90;2.97;;;;;;;23.18;40.19;101212.75;21012087;28;20056;-70
2023/03/27 17:10:47;;;;;;;16.73;2.80;;;;;;;23.24;39.82;101178.09;21031791;28;20048;-70
2023/03/27 17:20:49;;;;;;;22.38;3.28;;;;;;;23.30;40.11;101171.34;21052261;28;20804;-69
2023/03/27 17:30:53;;;;;;;15.20;3.65;;;;;;;23.22;40.14;101157.16;21039996;28;20411;-71
2023/03/27 17:40:58;;;;;;;9.85;2.60;;;;;;;23.05;40.35;101124.09;21048935;28;20065;-73
2023/03/27 17:50:59;;;;;;;13.80;3.00;;;;;;;23.37;39.65;101145.03;21064963;28;20100;-70
2023/03/27 18:01:15;;;;;;;14.45;3.33;;;;;;;23.34;40.17;101132.50;21071354;28;20031;-72
2023/03/27 18:11:16;;;;;;;14.02;2.80;;;;;;;23.40;40.83;101130.50;21054184;28;20040;-72
2023/03/27 18:21:20;;;;;;;10.95;2.90;;;;;;;23.41;40.73;101116.22;21067795;28;20058;-69
2023/03/27 18:31:25;;;;;;;16.35;3.15;;;;;;;23.35;40.61;101078.31;21059716;28;20040;-70
2023/03/27 18:41:29;;;;;;;28.75;4.28;;;;;;;23.31;42.80;101044.56;21052249;28;20047;-65
2023/03/27 18:51:30;;;;;;;22.50;3.50;;;;;;;23.46;41.31;101079.03;21052513;28;20048;-71
2023/03/27 19:01:33;;;;;;;28.63;3.13;;;;;;;23.37;42.15;101097.56;21081454;28;20372;-72
2023/03/27 19:11:38;;;;;;;18.67;3.22;;;;;;;23.52;42.47;101142.94;21060984;28;20070;-70
2023/03/27 19:21:42;;;;;;;20.05;3.25;;;;;;;23.37;42.67;101076.06;21072678;28;20047;-73
2023/03/27 19:31:46;;;;;;;18.15;3.83;;;;;;;23.53;42.52;101085.13;21083157;28;20425;-73
2023/03/27 19:41:48;;;;;;;31.75;3.78;;;;;;;23.53;42.55;101041.25;21084614;28;20051;-68
2023/03/27 19:51:49;;;;;;;23.33;3.78;;;;;;;23.39;43.34;100952.91;21051328;28;20044;-66
2023/03/27 20:01:53;;;;;;;23.35;3.40;;;;;;;23.56;43.30;101048.22;21052833;28;20106;-68
2023/03/27 20:11:55;;;;;;;31.45;3.65;;;;;;;23.55;43.23;100993.50;21055293;28;20410;-66
2023/03/27 20:21:57;;;;;;;31.45;3.67;;;;;;;23.27;43.60;100951.34;20951638;28;20141;-64
2023/03/27 20:31:58;;;;;;;51.95;5.78;;;;;;;23.44;43.17;100969.59;20956613;28;20048;-72
2023/03/27 20:41:59;;;;;;;33.58;4.25;;;;;;;23.58;43.53;100993.72;21042127;28;20036;-69
2023/03/27 20:52:02;;;;;;;25.63;3.17;;;;;;;23.24;44.91;101027.34;21061440;28;20039;-71
2023/03/27 21:02:04;;;;;;;20.88;3.53;;;;;;;23.50;43.37;101080.13;21055614;28;20048;-74
2023/03/27 21:12:07;;;;;;;29.95;3.97;;;;;;;23.71;43.99;100991.38;21062923;28;20067;-75
2023/03/27 21:22:08;;;;;;;30.10;4.90;;;;;;;23.72;43.91;100998.59;21079747;28;20032;-72
2023/03/27 21:32:15;;;;;;;35.80;4.88;;;;;;;23.65;43.63;100986.97;21073949;28;20048;-70
2023/03/27 21:42:20;;;;;;;36.50;3.88;;;;;;;23.49;43.84;100966.72;21072972;28;20508;-72
2023/03/27 21:52:21;;;;;;;22.45;3.47;;;;;;;23.29;43.83;101021.69;21079181;28;20052;-73
2023/03/27 22:02:23;;;;;;;34.38;3.22;;;;;;;23.66;43.62;101039.75;21077685;28;20101;-75
2023/03/27 22:12:24;;;;;;;19.75;4.25;;;;;;;23.59;43.37;101025.25;21068834;28;20411;-74
2023/03/27 22:22:25;;;;;;;37.55;5.43;;;;;;;23.49;43.77;100997.47;21071578;28;20044;-75
2023/03/27 22:32:27;;;;;;;38.17;5.00;;;;;;;23.68;43.31;101064.59;21056186;28;20024;-70
2023/03/27 22:42:29;;;;;;;257.65;23.52;;;;;;;23.61;44.59;101064.94;21067717;28;20380;-74
2023/03/27 22:52:31;;;;;;;55.90;7.05;;;;;;;23.66;42.73;101109.59;21074963;28;20548;-74
2023/03/27 23:02:33;;;;;;;53.47;6.57;;;;;;;23.65;42.44;101121.91;21072862;28;20036;-73
2023/03/27 23:12:34;;;;;;;44.20;5.93;;;;;;;23.61;42.05;101164.66;21075851;28;20074;-74
2023/03/27 23:22:36;;;;;;;41.50;5.72;;;;;;;23.16;41.92;101111.72;21074268;28;20035;-74
2023/03/27 23:32:38;;;;;;;28.92;6.13;;;;;;;23.24;41.86;101122.25;21073855;28;20044;-74
2023/03/27 23:42:39;;;;;;;28.48;5.43;;;;;;;23.50;41.85;101184.31;21082389;28;20093;-74
2023/03/27 23:52:41;;;;;;;32.80;5.72;;;;;;;22.64;41.38;101023.09;21082498;28;20044;-72
